createdAt,value
2023-03-06T00:01:08.242Z,58.56
2023-03-06T00:03:35.547Z,58.17
2023-03-06T00:06:02.638Z,58.09
2023-03-06T00:08:29.875Z,58.41
2023-03-06T00:10:57.751Z,58.14
2023-03-06T00:13:26.743Z,58.05
2023-03-06T00:15:53.920Z,58.14
2023-03-06T00:18:21.041Z,57.69
2023-03-06T00:20:48.136Z,57.83
2023-03-06T00:23:15.263Z,57.18
2023-03-06T00:25:44.262Z,57.86
2023-03-06T00:28:12.529Z,57.30
2023-03-06T00:30:39.734Z,57.31
2023-03-06T00:33:06.926Z,57.77
2023-03-06T00:35:33.983Z,57.93
2023-03-06T00:38:01.038Z,57.88
2023-03-06T00:40:28.079Z,58.65
2023-03-06T00:42:55.111Z,58.52
2023-03-06T00:45:22.226Z,58.72
2023-03-06T00:47:49.438Z,59.03
2023-03-06T00:50:16.656Z,58.97
2023-03-06T00:52:43.668Z,59.33
2023-03-06T00:55:10.981Z,59.03
2023-03-06T00:57:39.409Z,58.88
2023-03-06T01:00:07.749Z,58.84
2023-03-06T01:02:34.836Z,58.37
2023-03-06T01:05:02.332Z,58.24
2023-03-06T01:07:34.133Z,58.17
2023-03-06T01:10:01.256Z,58.43
2023-03-06T01:12:30.995Z,58.78
2023-03-06T01:14:58.020Z,58.16
2023-03-06T01:17:25.089Z,57.85
2023-03-06T01:19:52.096Z,58.59
2023-03-06T01:22:19.211Z,58.39
2023-03-06T01:24:46.210Z,57.73
2023-03-06T01:27:14.152Z,57.95
2023-03-06T01:29:43.965Z,57.85
2023-03-06T01:32:11.085Z,57.92
2023-03-06T01:34:38.050Z,58.43
2023-03-06T01:37:05.029Z,58.50
2023-03-06T01:39:32.226Z,58.71
2023-03-06T01:41:59.438Z,58.89
2023-03-06T01:44:26.569Z,58.91
2023-03-06T01:46:53.613Z,58.86
2023-03-06T01:49:28.631Z,59.29
2023-03-06T01:52:10.575Z,59.18
2023-03-06T01:55:11.363Z,59.85
2023-03-06T01:57:52.997Z,59.85
2023-03-06T02:00:24.198Z,59.36
2023-03-06T02:02:58.871Z,59.96
2023-03-06T02:05:25.906Z,59.89
2023-03-06T02:07:54.547Z,59.88
2023-03-06T02:10:22.134Z,60.36
2023-03-06T02:12:51.364Z,60.79
2023-03-06T02:15:22.452Z,60.04
2023-03-06T02:17:51.516Z,59.92
2023-03-06T02:20:48.068Z,60.24
2023-03-06T02:23:21.801Z,60.27
2023-03-06T02:25:51.081Z,59.98
2023-03-06T02:28:22.349Z,60.04
2023-03-06T02:30:54.789Z,60.20
2023-03-06T02:33:25.104Z,59.91
2023-03-06T02:36:14.781Z,60.10
2023-03-06T02:38:48.960Z,60.03
2023-03-06T02:41:17.953Z,60.54
2023-03-06T02:43:48.164Z,60.79
2023-03-06T02:46:15.302Z,60.94
2023-03-06T02:48:42.549Z,61.25
2023-03-06T02:51:09.536Z,60.60
2023-03-06T02:53:36.789Z,61.03
2023-03-06T02:56:03.822Z,60.88
2023-03-06T02:58:30.789Z,61.07
2023-03-06T03:00:58.959Z,61.25
2023-03-06T03:03:26.698Z,61.07
2023-03-06T03:05:53.667Z,60.59
2023-03-06T03:08:24.802Z,60.80
2023-03-06T03:10:57.108Z,61.23
2023-03-06T03:13:25.377Z,60.99
2023-03-06T03:16:07.055Z,61.03
2023-03-06T03:18:34.761Z,60.46
2023-03-06T03:21:02.757Z,60.70
2023-03-06T03:23:29.743Z,60.47
2023-03-06T03:26:10.218Z,60.31
2023-03-06T03:28:40.176Z,60.44
2023-03-06T03:31:09.324Z,59.92
2023-03-06T03:33:36.498Z,60.32
2023-03-06T03:36:06.076Z,59.99
2023-03-06T03:38:34.878Z,60.53
2023-03-06T03:41:02.981Z,60.96
2023-03-06T03:43:30.961Z,61.01
2023-03-06T03:45:59.156Z,60.50
2023-03-06T03:48:26.530Z,60.91
2023-03-06T03:50:53.626Z,60.19
2023-03-06T03:53:23.365Z,59.60
2023-03-06T03:55:50.430Z,60.83
2023-03-06T03:58:20.019Z,60.34
2023-03-06T04:00:48.289Z,60.62
2023-03-06T04:03:15.663Z,59.85
2023-03-06T04:05:45.145Z,60.17
2023-03-06T04:08:15.174Z,60.58
2023-03-06T04:10:44.865Z,60.15
2023-03-06T04:13:14.187Z,60.43
2023-03-06T04:15:43.717Z,60.75
2023-03-06T04:18:11.473Z,60.70
2023-03-06T04:20:39.439Z,60.04
2023-03-06T04:23:06.639Z,60.38
2023-03-06T04:25:33.711Z,59.88
2023-03-06T04:28:02.997Z,60.20
2023-03-06T04:30:31.046Z,59.64
2023-03-06T04:32:58.576Z,59.90
2023-03-06T04:35:25.890Z,60.21
2023-03-06T04:37:58.998Z,60.12
2023-03-06T04:40:31.622Z,60.59
2023-03-06T04:43:00.584Z,60.56
2023-03-06T04:45:29.375Z,61.15
2023-03-06T04:47:57.283Z,60.67
2023-03-06T04:50:25.583Z,60.68
2023-03-06T04:52:52.717Z,60.43
2023-03-06T04:55:20.293Z,59.82
2023-03-06T04:57:47.927Z,59.68
2023-03-06T05:00:20.852Z,59.96
2023-03-06T05:02:49.155Z,59.74
2023-03-06T05:05:17.929Z,59.71
2023-03-06T05:07:45.258Z,59.43
2023-03-06T05:10:14.877Z,59.29
2023-03-06T05:12:42.244Z,58.67
2023-03-06T05:15:10.819Z,58.77
2023-03-06T05:17:37.982Z,58.74
2023-03-06T05:20:07.489Z,58.69
2023-03-06T05:22:34.923Z,58.66
2023-03-06T05:25:02.166Z,58.84
2023-03-06T05:27:30.979Z,57.92
2023-03-06T05:29:58.451Z,57.20
2023-03-06T05:32:25.628Z,57.32
2023-03-06T05:34:52.677Z,57.43
2023-03-06T05:37:19.787Z,55.81
2023-03-06T05:39:47.021Z,56.11
2023-03-06T05:42:14.059Z,55.62
2023-03-06T05:44:41.922Z,57.21
2023-03-06T05:47:09.365Z,57.54
2023-03-06T05:49:36.860Z,57.63
2023-03-06T05:52:05.565Z,58.58
2023-03-06T05:54:34.675Z,57.17
2023-03-06T05:57:04.379Z,57.13
2023-03-06T05:59:33.202Z,56.60
2023-03-06T06:02:01.404Z,55.91
2023-03-06T06:04:28.875Z,54.99
2023-03-06T06:06:57.782Z,53.84
2023-03-06T06:09:25.957Z,52.34
2023-03-06T06:11:54.938Z,51.06
2023-03-06T06:14:21.962Z,50.90
2023-03-06T06:16:49.134Z,50.02
2023-03-06T06:19:20.276Z,49.73
2023-03-06T06:21:49.805Z,50.50
2023-03-06T06:24:19.130Z,49.51
2023-03-06T06:26:46.418Z,48.81
2023-03-06T06:29:13.835Z,48.40
2023-03-06T06:31:41.491Z,48.32
2023-03-06T06:34:10.805Z,48.32
2023-03-06T06:36:38.245Z,48.98
2023-03-06T06:39:07.451Z,48.60
2023-03-06T06:41:53.412Z,48.60
2023-03-06T06:44:22.413Z,49.16
2023-03-06T06:47:21.421Z,49.11
2023-03-06T06:49:37.650Z,49.59
2023-03-06T06:52:05.849Z,50.04
2023-03-06T06:54:34.197Z,50.03
2023-03-06T06:57:01.278Z,50.57
2023-03-06T06:59:28.385Z,50.49
2023-03-06T07:01:55.498Z,50.93
2023-03-06T07:04:22.760Z,51.23
2023-03-06T07:06:49.809Z,50.60
2023-03-06T07:09:16.992Z,50.23
2023-03-06T07:11:44.075Z,49.94
2023-03-06T07:14:11.091Z,50.26
2023-03-06T07:16:38.172Z,49.81
2023-03-06T07:19:05.313Z,49.41
2023-03-06T07:21:32.881Z,48.96
2023-03-06T07:24:00.045Z,49.86
2023-03-06T07:26:28.287Z,49.32
2023-03-06T07:28:55.517Z,50.71
2023-03-06T07:31:25.527Z,50.83
2023-03-06T07:33:54.405Z,51.62
2023-03-06T07:36:24.967Z,51.11
2023-03-06T07:38:52.066Z,51.18
2023-03-06T07:41:22.159Z,49.48
2023-03-06T07:43:50.409Z,49.78
2023-03-06T07:46:17.834Z,50.30
2023-03-06T07:48:45.019Z,49.97
2023-03-06T07:51:20.453Z,50.14
2023-03-06T07:53:48.384Z,50.20
2023-03-06T07:56:16.375Z,49.94
2023-03-06T07:58:45.329Z,50.07
2023-03-06T08:01:15.556Z,50.25
2023-03-06T08:03:42.737Z,51.83
2023-03-06T08:06:14.951Z,50.15
2023-03-06T08:08:44.753Z,49.37
2023-03-06T08:11:13.371Z,49.14
2023-03-06T08:13:41.152Z,51.07
2023-03-06T08:16:09.283Z,50.81
2023-03-06T08:18:36.331Z,51.28
2023-03-06T08:21:07.775Z,49.58
2023-03-06T08:23:35.484Z,47.00
2023-03-06T08:26:05.356Z,47.55
2023-03-06T08:28:32.785Z,49.18
2023-03-06T08:31:09.122Z,48.15
2023-03-06T08:33:36.759Z,46.52
2023-03-06T08:36:04.078Z,46.78
2023-03-06T08:38:31.141Z,46.82
2023-03-06T08:40:58.397Z,46.16
2023-03-06T08:43:25.447Z,47.53
2023-03-06T08:45:53.944Z,47.44
2023-03-06T08:48:20.963Z,47.29
2023-03-06T08:50:48.286Z,47.79
2023-03-06T08:53:15.498Z,47.41
2023-03-06T08:55:42.616Z,46.92
2023-03-06T08:58:10.068Z,46.23
2023-03-06T09:00:38.080Z,47.04
2023-03-06T09:03:05.959Z,46.98
2023-03-06T09:05:33.083Z,47.65
2023-03-06T09:08:00.158Z,48.52
2023-03-06T09:10:27.960Z,47.32
2023-03-06T09:12:55.514Z,47.43
2023-03-06T09:15:23.971Z,47.56
2023-03-06T09:17:51.949Z,48.11
2023-03-06T09:20:19.404Z,48.82
2023-03-06T09:22:47.050Z,49.86
2023-03-06T09:25:17.678Z,48.05
2023-03-06T09:27:44.674Z,48.89
2023-03-06T09:30:12.435Z,46.91
2023-03-06T09:32:39.496Z,48.37
2023-03-06T09:35:07.129Z,47.82
2023-03-06T09:37:34.270Z,46.51
2023-03-06T09:40:01.255Z,47.38
2023-03-06T09:42:29.371Z,45.72
2023-03-06T09:45:00.589Z,45.38
2023-03-06T09:47:48.627Z,46.38
2023-03-06T09:50:36.234Z,46.30
2023-03-06T09:53:12.076Z,46.36
2023-03-06T09:55:40.771Z,45.98
2023-03-06T09:58:47.608Z,45.68
2023-03-06T10:01:25.419Z,46.18
2023-03-06T10:04:02.193Z,46.51
2023-03-06T10:06:45.920Z,48.21
2023-03-06T10:09:41.959Z,47.72
2023-03-06T10:12:25.383Z,46.81
2023-03-06T10:15:02.162Z,46.63
2023-03-06T10:17:37.839Z,45.87
2023-03-06T10:20:22.209Z,46.59
2023-03-06T10:23:07.861Z,45.93
2023-03-06T10:25:56.769Z,45.34
2023-03-06T10:28:36.676Z,45.28
2023-03-06T10:31:21.449Z,46.17
2023-03-06T10:33:54.509Z,44.84
2023-03-06T10:36:27.336Z,44.11
2023-03-06T10:38:57.622Z,41.81
2023-03-06T10:41:32.201Z,40.72
2023-03-06T10:44:05.346Z,41.53
2023-03-06T10:46:36.532Z,41.38
2023-03-06T10:49:22.530Z,40.61
2023-03-06T10:52:09.840Z,41.80
2023-03-06T10:54:42.649Z,42.71
2023-03-06T10:57:27.905Z,42.77
2023-03-06T10:59:58.955Z,43.35
2023-03-06T11:02:31.487Z,44.27
2023-03-06T11:05:00.477Z,44.12
2023-03-06T11:07:33.173Z,45.17
2023-03-06T11:10:19.169Z,45.44
2023-03-06T11:13:09.118Z,44.26
2023-03-06T11:15:36.386Z,43.16
2023-03-06T11:18:09.509Z,42.60
2023-03-06T11:20:54.431Z,42.08
2023-03-06T11:23:44.786Z,41.72
2023-03-06T11:26:17.851Z,43.00
2023-03-06T11:29:12.322Z,43.46
2023-03-06T11:31:54.801Z,43.61
2023-03-06T11:35:07.988Z,43.76
2023-03-06T11:37:57.514Z,43.27
2023-03-06T11:40:31.741Z,42.42
2023-03-06T11:42:58.728Z,43.41
2023-03-06T11:45:46.550Z,43.41
2023-03-06T11:48:17.616Z,43.24
2023-03-06T11:50:47.916Z,42.64
2023-03-06T11:53:21.507Z,41.44
2023-03-06T11:55:54.356Z,41.95
2023-03-06T11:58:40.429Z,42.98
2023-03-06T12:01:23.475Z,42.23
2023-03-06T12:04:02.747Z,43.47
2023-03-06T12:06:53.044Z,42.68
2023-03-06T12:09:28.495Z,43.28
2023-03-06T12:12:25.740Z,42.57
2023-03-06T12:14:52.818Z,42.57
2023-03-06T12:17:26.801Z,43.19
2023-03-06T12:20:19.990Z,43.23
2023-03-06T12:22:57.916Z,44.13
2023-03-06T12:25:38.205Z,45.58
2023-03-06T12:28:20.382Z,48.92
2023-03-06T12:30:56.381Z,52.92
2023-03-06T12:33:31.479Z,53.81
2023-03-06T12:36:22.667Z,55.07
2023-03-06T12:39:11.531Z,54.04
2023-03-06T12:42:23.215Z,54.08
2023-03-06T12:45:19.433Z,55.05
2023-03-06T12:47:48.976Z,52.39
2023-03-06T12:50:34.588Z,51.72
2023-03-06T12:53:04.603Z,51.63
2023-03-06T12:55:48.994Z,51.95
2023-03-06T12:58:31.360Z,51.61
2023-03-06T13:01:09.759Z,52.19
2023-03-06T13:04:14.101Z,50.40
2023-03-06T13:07:22.852Z,50.62
2023-03-06T13:10:06.146Z,52.58
2023-03-06T13:12:49.542Z,53.41
2023-03-06T13:15:35.238Z,53.34
2023-03-06T13:18:25.616Z,53.90
2023-03-06T13:20:56.975Z,53.58
2023-03-06T13:23:30.390Z,52.54
2023-03-06T13:25:58.593Z,51.65
2023-03-06T13:28:50.657Z,51.01
2023-03-06T13:31:28.894Z,50.83
2023-03-06T13:34:02.459Z,50.70
2023-03-06T13:36:39.725Z,49.67
2023-03-06T13:39:11.181Z,48.02
2023-03-06T13:41:53.237Z,48.64
2023-03-06T13:44:26.297Z,48.09
2023-03-06T13:47:02.728Z,48.00
2023-03-06T13:49:30.444Z,48.26
2023-03-06T13:52:29.666Z,48.27
2023-03-06T13:55:15.542Z,49.16
2023-03-06T13:57:58.023Z,47.88
2023-03-06T14:00:43.397Z,48.05
2023-03-06T14:03:32.601Z,49.33
2023-03-06T14:05:59.997Z,49.47
2023-03-06T14:08:34.308Z,49.46
2023-03-06T14:11:15.538Z,50.21
2023-03-06T14:13:57.256Z,50.63
2023-03-06T14:16:29.190Z,50.40
2023-03-06T14:19:01.043Z,50.36
2023-03-06T14:21:32.157Z,50.89
2023-03-06T14:24:01.419Z,50.77
2023-03-06T14:26:51.931Z,50.36
2023-03-06T14:29:24.764Z,50.98
2023-03-06T14:31:54.860Z,51.24
2023-03-06T14:34:25.863Z,51.31
2023-03-06T14:36:56.049Z,50.65
2023-03-06T14:39:42.595Z,51.19
2023-03-06T14:42:20.885Z,50.38
2023-03-06T14:44:49.983Z,50.50
2023-03-06T14:47:27.968Z,50.52
2023-03-06T14:50:30.398Z,50.04
2023-03-06T14:53:05.108Z,51.14
2023-03-06T14:55:35.367Z,50.69
2023-03-06T14:58:13.835Z,50.37
2023-03-06T15:00:45.498Z,51.37
2023-03-06T15:03:41.168Z,51.26
2023-03-06T15:06:36.720Z,51.85
2023-03-06T15:09:08.232Z,52.06
2023-03-06T15:11:56.439Z,52.25
2023-03-06T15:14:48.188Z,52.89
2023-03-06T15:17:16.228Z,53.26
2023-03-06T15:19:44.612Z,53.57
2023-03-06T15:22:41.236Z,54.30
2023-03-06T15:25:30.140Z,53.97
2023-03-06T15:28:22.574Z,55.03
2023-03-06T15:31:28.074Z,54.35
2023-03-06T15:34:07.083Z,54.37
2023-03-06T15:36:39.770Z,54.57
2023-03-06T15:39:29.112Z,54.98
2023-03-06T15:42:14.453Z,55.63
2023-03-06T15:44:42.088Z,56.05
2023-03-06T15:47:39.884Z,56.27
2023-03-06T15:50:19.495Z,57.03
2023-03-06T15:52:48.454Z,57.46
2023-03-06T15:55:19.200Z,58.22
2023-03-06T15:58:02.460Z,58.05
2023-03-06T16:00:35.323Z,57.95
2023-03-06T16:03:03.174Z,58.66
2023-03-06T16:05:30.994Z,58.32
2023-03-06T16:07:58.228Z,58.75
2023-03-06T16:10:29.086Z,60.27
2023-03-06T16:13:10.288Z,61.15
2023-03-06T16:15:47.000Z,60.26
2023-03-06T16:18:14.039Z,59.96
2023-03-06T16:20:41.795Z,60.23
2023-03-06T16:23:12.551Z,59.96
2023-03-06T16:25:43.140Z,60.88
2023-03-06T16:28:15.637Z,60.35
2023-03-06T16:30:44.541Z,60.26
2023-03-06T16:33:13.841Z,59.96
2023-03-06T16:35:41.492Z,59.88
2023-03-06T16:38:10.362Z,59.63
2023-03-06T16:40:41.418Z,59.04
2023-03-06T16:43:10.967Z,59.17
2023-03-06T16:45:40.396Z,58.30
2023-03-06T16:48:11.170Z,58.13
2023-03-06T16:50:40.289Z,58.28
2023-03-06T16:53:08.027Z,58.45
2023-03-06T16:55:35.097Z,58.30
2023-03-06T16:58:02.370Z,58.64
2023-03-06T17:00:32.144Z,58.34
2023-03-06T17:03:00.843Z,58.63
2023-03-06T17:05:29.066Z,58.17
2023-03-06T17:07:56.256Z,58.10
2023-03-06T17:10:26.456Z,58.33
2023-03-06T17:12:55.427Z,58.48
2023-03-06T17:15:22.970Z,58.50
2023-03-06T17:17:51.769Z,57.83
2023-03-06T17:20:19.891Z,57.86
2023-03-06T17:22:46.989Z,57.10
2023-03-06T17:25:14.201Z,57.65
2023-03-06T17:27:41.328Z,57.15
2023-03-06T17:30:09.123Z,57.11
2023-03-06T17:32:37.566Z,56.71
2023-03-06T17:35:05.323Z,56.99
2023-03-06T17:37:32.713Z,56.23
2023-03-06T17:39:59.859Z,56.52
2023-03-06T17:42:26.890Z,56.61
2023-03-06T17:44:54.219Z,56.67
2023-03-06T17:47:21.419Z,57.24
2023-03-06T17:49:48.511Z,56.94
2023-03-06T17:52:15.759Z,56.71
2023-03-06T17:54:42.718Z,57.15
2023-03-06T17:57:09.712Z,57.59
2023-03-06T17:59:36.698Z,57.18
2023-03-06T18:02:03.905Z,56.81
2023-03-06T18:04:30.968Z,57.09
2023-03-06T18:06:58.464Z,57.20
2023-03-06T18:09:25.502Z,57.46
2023-03-06T18:11:52.698Z,57.63
2023-03-06T18:14:19.675Z,58.51
2023-03-06T18:16:47.070Z,58.52
2023-03-06T18:19:14.512Z,58.95
2023-03-06T18:21:41.545Z,59.40
2023-03-06T18:24:11.435Z,59.20
2023-03-06T18:26:42.245Z,59.53
2023-03-06T18:29:09.247Z,59.77
2023-03-06T18:31:38.789Z,59.76
2023-03-06T18:34:11.280Z,59.65
2023-03-06T18:36:56.994Z,59.84
2023-03-06T18:39:24.063Z,59.93
2023-03-06T18:41:51.803Z,59.60
2023-03-06T18:44:19.396Z,59.76
2023-03-06T18:46:46.548Z,59.54
2023-03-06T18:49:14.597Z,59.98
2023-03-06T18:51:41.923Z,59.87
2023-03-06T18:54:12.407Z,60.02
2023-03-06T18:56:44.218Z,59.80
2023-03-06T18:59:18.948Z,59.96
2023-03-06T19:01:47.343Z,60.51
2023-03-06T19:04:15.732Z,60.32
2023-03-06T19:06:42.967Z,60.23
2023-03-06T19:09:11.436Z,60.21
2023-03-06T19:11:38.522Z,60.50
2023-03-06T19:14:05.778Z,60.54
2023-03-06T19:16:32.889Z,60.15
2023-03-06T19:18:59.934Z,60.46
2023-03-06T19:21:27.839Z,60.75
2023-03-06T19:23:56.159Z,60.30
2023-03-06T19:26:23.635Z,60.53
2023-03-06T19:28:52.591Z,60.41
2023-03-06T19:31:25.169Z,60.47
2023-03-06T19:33:53.575Z,60.03
2023-03-06T19:36:26.716Z,60.00
2023-03-06T19:38:55.562Z,60.02
2023-03-06T19:41:23.081Z,60.17
2023-03-06T19:43:53.179Z,60.04
2023-03-06T19:46:22.188Z,59.97
2023-03-06T19:48:55.023Z,59.77
2023-03-06T19:51:22.476Z,59.96
2023-03-06T19:53:49.480Z,60.01
2023-03-06T19:56:23.703Z,59.28
2023-03-06T19:58:51.311Z,59.06
2023-03-06T20:01:20.981Z,59.51
2023-03-06T20:03:49.469Z,59.34
2023-03-06T20:06:19.505Z,58.72
2023-03-06T20:08:47.753Z,58.60
2023-03-06T20:11:19.417Z,57.84
2023-03-06T20:13:47.998Z,57.45
2023-03-06T20:16:16.241Z,56.50
2023-03-06T20:18:43.339Z,57.39
2023-03-06T20:21:10.744Z,57.22
2023-03-06T20:23:38.163Z,56.27
2023-03-06T20:26:09.599Z,55.92
2023-03-06T20:28:39.235Z,55.54
2023-03-06T20:31:07.729Z,55.76
2023-03-06T20:33:34.924Z,55.31
2023-03-06T20:36:01.964Z,55.41
2023-03-06T20:38:29.110Z,55.18
2023-03-06T20:40:58.155Z,55.34
2023-03-06T20:43:25.278Z,55.11
2023-03-06T20:46:04.040Z,55.32
2023-03-06T20:48:31.124Z,55.08
2023-03-06T20:51:07.294Z,54.40
2023-03-06T20:53:35.316Z,54.15
2023-03-06T20:56:02.498Z,53.82
2023-03-06T20:58:31.673Z,54.15
2023-03-06T21:00:59.942Z,53.60
2023-03-06T21:03:29.295Z,53.31
2023-03-06T21:05:56.817Z,53.23
2023-03-06T21:08:24.211Z,53.27
2023-03-06T21:10:51.393Z,54.83
2023-03-06T21:13:18.552Z,55.04
2023-03-06T21:15:47.610Z,56.06
2023-03-06T21:18:14.945Z,53.82
2023-03-06T21:20:42.300Z,53.19
2023-03-06T21:23:09.528Z,53.34
2023-03-06T21:25:36.766Z,52.99
2023-03-06T21:28:03.844Z,53.03
2023-03-06T21:30:30.990Z,53.20
2023-03-06T21:32:58.084Z,53.63
2023-03-06T21:35:25.254Z,53.38
2023-03-06T21:37:52.325Z,53.63
2023-03-06T21:40:19.572Z,53.50
2023-03-06T21:42:46.521Z,53.04
2023-03-06T21:45:13.744Z,53.15
2023-03-06T21:47:41.116Z,53.23
2023-03-06T21:50:10.650Z,53.01
2023-03-06T21:52:37.684Z,53.86
2023-03-06T21:55:05.512Z,53.67
2023-03-06T21:57:32.817Z,52.93
2023-03-06T21:59:59.938Z,53.22
2023-03-06T22:02:26.972Z,53.52
2023-03-06T22:04:54.456Z,52.73
2023-03-06T22:07:21.748Z,53.22
2023-03-06T22:09:51.638Z,53.20
2023-03-06T22:12:18.647Z,53.46
2023-03-06T22:14:45.740Z,53.39
2023-03-06T22:17:13.193Z,53.17
2023-03-06T22:19:40.256Z,52.82
2023-03-06T22:22:08.286Z,53.18
2023-03-06T22:24:36.893Z,53.19
2023-03-06T22:27:04.166Z,53.32
2023-03-06T22:29:31.201Z,52.36
2023-03-06T22:31:58.386Z,52.60
2023-03-06T22:34:26.713Z,52.77
2023-03-06T22:36:53.803Z,53.12
2023-03-06T22:39:20.768Z,52.81
2023-03-06T22:41:47.731Z,52.42
2023-03-06T22:44:17.490Z,52.46
2023-03-06T22:46:45.459Z,52.15
2023-03-06T22:49:13.858Z,52.76
2023-03-06T22:51:40.964Z,52.50
2023-03-06T22:54:08.288Z,52.38
2023-03-06T22:56:35.997Z,52.35
2023-03-06T22:59:03.380Z,53.04
2023-03-06T23:01:33.114Z,52.70
2023-03-06T23:04:02.995Z,53.04
2023-03-06T23:06:31.476Z,52.94
2023-03-06T23:09:07.919Z,53.32
2023-03-06T23:11:53.523Z,52.75
2023-03-06T23:14:39.312Z,53.07
2023-03-06T23:17:25.196Z,52.82
2023-03-06T23:20:13.428Z,53.09
2023-03-06T23:22:59.051Z,53.17
2023-03-06T23:25:41.482Z,53.09
2023-03-06T23:28:08.526Z,53.06
2023-03-06T23:30:35.599Z,52.98
2023-03-06T23:33:02.582Z,53.16
2023-03-06T23:35:29.708Z,53.39
2023-03-06T23:37:57.494Z,53.17
2023-03-06T23:40:24.975Z,53.46
2023-03-06T23:42:51.980Z,52.92
2023-03-06T23:45:19.251Z,53.03
2023-03-06T23:47:46.261Z,52.79
2023-03-06T23:50:14.179Z,53.49
2023-03-06T23:52:41.212Z,53.22
2023-03-06T23:55:09.181Z,52.68
2023-03-06T23:57:36.308Z,53.32
